Time;durP1;ratioP1;P1;durP2;ratioP2;P2;SDS_P1;SDS_P2;PMS_P1;PMS_P2;Temp;Humidity;BMP_temperature;BMP_pressure;BME280_temperature;BME280_humidity;BME280_pressure;Samples;Min_cycle;Max_cycle;Signal;HPM_P1;HPM_P2
2022/10/16 00:01:15;;;;;;;8.18;3.47;;;;;;;11.46;94.34;100918.94;5044204;28;20056;-79
2022/10/16 00:03:42;;;;;;;6.85;3.28;;;;;;;11.41;94.81;100927.13;5051875;28;20082;-79
2022/10/16 00:06:08;;;;;;;6.57;3.38;;;;;;;11.46;95.24;100929.31;5050427;28;20029;-79
2022/10/16 00:08:34;;;;;;;7.90;3.92;;;;;;;11.42;95.06;100927.97;5054081;28;20051;-79
2022/10/16 00:11:03;;;;;;;7.03;4.10;;;;;;;11.37;95.98;100923.13;5046268;28;20442;-79
2022/10/16 00:13:29;;;;;;;9.05;3.63;;;;;;;11.37;95.23;100922.31;5040910;28;20052;-79
2022/10/16 00:15:56;;;;;;;8.35;3.78;;;;;;;11.40;95.68;100930.66;5045662;28;20056;-79
2022/10/16 00:18:22;;;;;;;8.18;3.70;;;;;;;11.37;95.46;100919.72;5045239;28;20032;-79
2022/10/16 00:20:47;;;;;;;6.00;3.38;;;;;;;11.35;95.55;100916.41;5028182;28;20444;-80
2022/10/16 00:23:12;;;;;;;8.35;3.67;;;;;;;11.42;95.54;100925.38;5044592;28;20063;-79
2022/10/16 00:25:38;;;;;;;7.78;3.53;;;;;;;11.39;95.72;100920.41;5047212;28;20021;-79
2022/10/16 00:28:03;;;;;;;9.27;4.45;;;;;;;11.39;95.99;100923.81;5048912;28;20098;-79
2022/10/16 00:30:29;;;;;;;6.80;4.18;;;;;;;11.38;95.56;100926.56;5043676;28;20044;-80
2022/10/16 00:32:55;;;;;;;9.73;4.07;;;;;;;11.36;96.14;100923.28;5046172;28;20408;-79
2022/10/16 00:35:21;;;;;;;7.68;3.80;;;;;;;11.34;96.18;100931.16;5047737;28;20067;-79
2022/10/16 00:37:46;;;;;;;8.77;4.13;;;;;;;11.33;96.41;100919.16;5051591;28;20057;-79
2022/10/16 00:40:12;;;;;;;8.95;3.90;;;;;;;11.34;96.25;100930.34;5055155;28;20032;-79
2022/10/16 00:42:37;;;;;;;8.55;4.25;;;;;;;11.32;96.41;100921.88;5051576;28;20024;-79
2022/10/16 00:45:03;;;;;;;7.57;4.13;;;;;;;11.34;95.91;100925.16;5054924;28;20028;-79
2022/10/16 00:47:34;;;;;;;7.68;4.38;;;;;;;11.36;96.91;100923.28;5024532;28;20410;-80
2022/10/16 00:50:31;;;;;;;7.80;4.15;;;;;;;11.37;97.19;100914.53;5043426;28;20060;-79
2022/10/16 00:52:58;;;;;;;8.98;3.85;;;;;;;11.38;97.13;100921.38;5023014;28;20047;-79
2022/10/16 00:55:25;;;;;;;9.50;4.18;;;;;;;11.39;96.61;100928.19;5052887;28;20103;-79
2022/10/16 00:57:51;;;;;;;8.75;4.50;;;;;;;11.34;96.26;100915.59;5045058;28;20036;-79
2022/10/16 01:00:21;;;;;;;8.18;3.70;;;;;;;11.43;96.88;100925.22;5044722;28;20105;-79
2022/10/16 01:02:59;;;;;;;7.28;3.67;;;;;;;11.44;97.34;100921.66;5029458;28;20058;-79
2022/10/16 01:05:40;;;;;;;6.57;3.13;;;;;;;11.42;97.19;100927.97;5044974;28;20031;-79
2022/10/16 01:08:14;;;;;;;4.47;3.05;;;;;;;11.48;96.66;100932.63;5043070;28;20499;-79
2022/10/16 01:11:10;;;;;;;6.63;3.50;;;;;;;11.46;97.87;100918.13;5028121;28;20017;-79
2022/10/16 01:13:42;;;;;;;7.22;2.95;;;;;;;11.55;97.28;100923.38;5044794;28;20308;-80
2022/10/16 01:16:38;;;;;;;5.82;3.17;;;;;;;11.58;97.26;100923.09;5054238;28;20024;-79
2022/10/16 01:19:16;;;;;;;4.93;2.88;;;;;;;11.57;97.46;100920.63;5038835;28;20079;-80
2022/10/16 01:21:46;;;;;;;5.20;2.67;;;;;;;11.62;97.37;100919.31;5017273;28;20060;-80
2022/10/16 01:24:31;;;;;;;7.47;3.75;;;;;;;11.63;97.89;100915.75;5045038;28;20055;-80
2022/10/16 01:27:27;;;;;;;8.27;3.13;;;;;;;11.63;97.44;100912.31;5039510;28;20036;-80
2022/10/16 01:30:12;;;;;;;5.47;3.08;;;;;;;11.68;97.66;100923.97;5057289;28;20110;-80
2022/10/16 01:32:41;;;;;;;4.43;2.80;;;;;;;11.62;98.02;100911.50;5039673;28;20037;-80
2022/10/16 01:35:50;;;;;;;5.40;3.13;;;;;;;11.70;97.02;100922.09;5045417;28;20029;-80
2022/10/16 01:38:25;;;;;;;8.27;3.28;;;;;;;11.70;97.48;100922.09;5048534;28;20029;-80
2022/10/16 01:40:57;;;;;;;4.38;2.67;;;;;;;11.65;97.89;100913.84;5034699;28;20035;-80
2022/10/16 01:43:36;;;;;;;5.15;2.88;;;;;;;11.76;97.75;100925.13;5044831;28;20064;-80
2022/10/16 01:46:01;;;;;;;6.07;2.90;;;;;;;11.67;97.28;100917.13;5049937;28;20033;-80
2022/10/16 01:48:29;;;;;;;5.97;3.13;;;;;;;11.63;97.57;100910.53;5045736;28;20075;-80
2022/10/16 01:51:03;;;;;;;5.80;3.40;;;;;;;11.68;97.66;100917.97;5047080;28;20036;-80
2022/10/16 01:53:30;;;;;;;6.60;2.75;;;;;;;11.72;97.85;100937.53;5049114;28;20025;-80
2022/10/16 01:55:58;;;;;;;5.95;2.97;;;;;;;11.66;97.35;100925.06;5049892;28;20079;-80
2022/10/16 01:58:25;;;;;;;6.05;3.40;;;;;;;11.70;97.78;100921.28;5048469;28;20044;-80
2022/10/16 02:00:54;;;;;;;6.50;2.97;;;;;;;11.64;97.57;100904.41;5056351;28;20601;-80
2022/10/16 02:03:20;;;;;;;;;;;;;;;11.78;97.38;100928.41;5053686;28;20033;-80
2022/10/16 02:05:50;;;;;;;6.18;2.25;;;;;;;11.73;97.63;100920.19;5056930;28;20365;-81
2022/10/16 02:08:16;;;;;;;5.10;2.97;;;;;;;11.73;97.62;100922.78;5043979;28;20028;-80
2022/10/16 02:10:42;;;;;;;5.78;2.78;;;;;;;11.69;97.60;100909.19;5036259;28;20031;-80
2022/10/16 02:13:19;;;;;;;6.03;2.92;;;;;;;11.66;97.81;100912.91;5048229;28;20375;-80
2022/10/16 02:15:45;;;;;;;4.90;2.77;;;;;;;11.70;97.90;100916.88;5046645;28;20055;-80
2022/10/16 02:18:11;;;;;;;5.88;2.50;;;;;;;11.75;97.54;100929.47;5043875;28;20419;-80
2022/10/16 02:20:54;;;;;;;5.28;2.92;;;;;;;11.77;97.87;100931.97;5048474;28;20040;-80
2022/10/16 02:23:47;;;;;;;8.25;2.78;;;;;;;11.76;98.19;100935.53;5047631;28;20191;-81
2022/10/16 02:26:20;;;;;;;4.60;2.60;;;;;;;11.70;98.11;100929.88;5015974;28;20079;-81
2022/10/16 02:28:52;;;;;;;5.47;2.60;;;;;;;11.68;97.93;100923.16;5048362;28;20059;-81
2022/10/16 02:31:26;;;;;;;5.13;2.50;;;;;;;11.70;98.57;100927.28;5043406;28;20079;-81
2022/10/16 02:33:54;;;;;;;5.22;2.53;;;;;;;11.70;97.80;100932.47;5054674;28;20567;-80
2022/10/16 02:36:21;;;;;;;5.03;2.67;;;;;;;11.68;98.26;100939.56;5052575;28;20028;-80
2022/10/16 02:38:46;;;;;;;6.53;2.65;;;;;;;11.67;97.69;100937.09;5047339;28;20024;-80
2022/10/16 02:41:12;;;;;;;3.72;2.38;;;;;;;11.63;97.72;100926.13;5047298;28;20036;-80
2022/10/16 02:43:37;;;;;;;5.13;2.70;;;;;;;11.64;97.70;100925.22;5050120;28;20036;-80
2022/10/16 02:46:03;;;;;;;7.22;2.95;;;;;;;11.55;98.40;100928.56;5047567;28;20025;-80
2022/10/16 02:48:28;;;;;;;5.53;2.60;;;;;;;11.62;98.25;100940.09;5047279;28;20021;-80
2022/10/16 02:50:53;;;;;;;5.10;2.53;;;;;;;11.61;98.02;100948.84;5034497;28;20441;-80
2022/10/16 02:53:19;;;;;;;5.13;2.53;;;;;;;11.57;98.48;100947.44;5046646;28;20029;-80
2022/10/16 02:55:44;;;;;;;5.85;2.53;;;;;;;11.55;98.01;100938.97;5046765;28;20028;-80
2022/10/16 02:58:09;;;;;;;4.65;2.38;;;;;;;11.58;98.45;100932.66;5048037;28;20033;-80
2022/10/16 03:00:35;;;;;;;4.60;2.15;;;;;;;11.52;98.78;100923.63;5046874;28;20032;-79
2022/10/16 03:03:00;;;;;;;4.47;2.20;;;;;;;11.57;98.46;100931.84;5054024;28;20056;-79
2022/10/16 03:05:26;;;;;;;5.05;2.30;;;;;;;11.54;98.18;100926.94;5046836;28;20028;-79
2022/10/16 03:07:52;;;;;;;6.05;2.42;;;;;;;11.57;98.32;100921.47;5048636;28;20134;-80
2022/10/16 03:10:18;;;;;;;4.38;2.10;;;;;;;11.52;98.79;100910.63;5066807;28;20024;-80
2022/10/16 03:12:43;;;;;;;3.78;2.08;;;;;;;11.51;98.08;100911.59;5053212;28;20115;-80
2022/10/16 03:15:09;;;;;;;3.25;2.00;;;;;;;11.50;98.29;100924.72;5044777;28;20040;-80
2022/10/16 03:17:34;;;;;;;4.40;2.17;;;;;;;11.50;98.88;100930.72;5029261;28;20385;-80
2022/10/16 03:19:59;;;;;;;4.47;2.47;;;;;;;11.56;98.38;100945.78;5036387;28;20043;-79
2022/10/16 03:22:25;;;;;;;5.32;2.40;;;;;;;11.49;98.56;100939.47;5047417;28;20028;-80
2022/10/16 03:24:50;;;;;;;3.97;2.05;;;;;;;11.53;98.44;100946.06;5043598;28;20856;-80
2022/10/16 03:27:15;;;;;;;3.90;1.92;;;;;;;11.55;98.33;100949.34;5046973;28;20029;-79
2022/10/16 03:29:41;;;;;;;4.53;2.33;;;;;;;11.53;98.47;100945.25;5036464;28;20072;-80
2022/10/16 03:32:06;;;;;;;4.55;2.28;;;;;;;11.50;98.40;100945.50;5026799;28;20036;-80
2022/10/16 03:34:31;;;;;;;5.97;2.15;;;;;;;11.47;98.83;100943.97;5043613;28;20036;-80
2022/10/16 03:36:57;;;;;;;4.43;2.05;;;;;;;11.48;99.14;100947.41;5041038;28;20059;-80
2022/10/16 03:39:22;;;;;;;5.50;2.72;;;;;;;11.49;98.33;100955.06;5040235;28;20053;-80
2022/10/16 03:41:47;;;;;;;3.65;2.33;;;;;;;11.47;98.69;100964.75;5046733;28;20044;-80
2022/10/16 03:44:13;;;;;;;4.28;2.42;;;;;;;11.50;98.96;100976.66;5043912;28;20025;-80
2022/10/16 03:46:39;;;;;;;4.60;2.17;;;;;;;11.46;98.68;100968.28;5046587;28;20465;-80
2022/10/16 03:49:04;;;;;;;5.70;2.30;;;;;;;11.52;98.54;100966.94;5043699;28;20079;-80
2022/10/16 03:51:30;;;;;;;4.78;2.13;;;;;;;11.50;98.16;100956.69;5044813;28;20560;-80
2022/10/16 03:53:55;;;;;;;4.55;2.20;;;;;;;11.43;98.22;100950.38;5031724;28;20033;-80
2022/10/16 03:56:21;;;;;;;5.25;2.20;;;;;;;11.42;98.40;100959.13;5046645;28;20021;-80
2022/10/16 03:58:46;;;;;;;7.35;2.72;;;;;;;11.47;99.08;100976.91;5045050;28;20511;-80
2022/10/16 04:01:11;;;;;;;4.75;2.20;;;;;;;11.48;99.30;100974.19;5041870;28;20373;-80
2022/10/16 04:03:37;;;;;;;6.93;2.40;;;;;;;11.42;98.54;100974.69;5032838;28;20034;-80
2022/10/16 04:06:02;;;;;;;3.05;2.22;;;;;;;11.45;98.97;100984.81;5026588;28;20037;-81
2022/10/16 04:08:28;;;;;;;4.82;2.28;;;;;;;11.44;98.93;100978.81;5042428;28;20120;-79
2022/10/16 04:10:53;;;;;;;5.22;2.17;;;;;;;11.40;98.31;100981.78;5024797;28;20159;-80
2022/10/16 04:13:18;;;;;;;4.93;2.33;;;;;;;11.46;98.73;100991.66;5040519;28;20113;-80
2022/10/16 04:15:45;;;;;;;4.38;2.10;;;;;;;11.46;99.08;100986.47;5025075;28;20059;-80
2022/10/16 04:18:10;;;;;;;4.80;2.08;;;;;;;11.43;98.65;100994.53;5028411;28;20427;-81
2022/10/16 04:20:36;;;;;;;4.53;2.15;;;;;;;11.40;99.22;100994.75;5044754;28;20049;-80
2022/10/16 04:23:01;;;;;;;4.68;2.05;;;;;;;11.41;98.89;100991.22;5044761;28;20047;-80
2022/10/16 04:25:27;;;;;;;7.60;2.40;;;;;;;11.41;98.70;100997.25;5026261;28;20064;-80
2022/10/16 04:27:53;;;;;;;3.83;2.22;;;;;;;11.41;99.32;100999.84;5024668;28;20489;-80
2022/10/16 04:30:19;;;;;;;5.95;2.00;;;;;;;11.36;99.01;100990.78;5040995;28;20496;-80
2022/10/16 04:32:51;;;;;;;3.25;1.83;;;;;;;11.41;99.39;100999.84;5040469;28;20029;-79
2022/10/16 04:35:17;;;;;;;6.05;2.22;;;;;;;11.39;99.34;101006.09;5044562;28;20496;-79
2022/10/16 04:37:43;;;;;;;5.32;2.03;;;;;;;11.40;99.56;101007.75;5035786;28;20060;-80
2022/10/16 04:40:08;;;;;;;5.18;2.22;;;;;;;11.34;99.31;101008.25;5046754;28;20461;-79
2022/10/16 04:42:34;;;;;;;5.18;2.10;;;;;;;11.32;99.61;101004.97;5046682;28;20044;-80
2022/10/16 04:44:59;;;;;;;4.47;1.92;;;;;;;11.33;99.92;101007.44;5038508;28;20025;-80
2022/10/16 04:47:24;;;;;;;4.00;1.90;;;;;;;11.35;99.22;101004.69;5046093;28;20476;-80
2022/10/16 04:49:50;;;;;;;6.68;2.17;;;;;;;11.26;99.46;101005.47;5021477;28;20033;-80
2022/10/16 04:52:16;;;;;;;4.30;2.22;;;;;;;11.26;99.59;101011.50;5020798;28;20418;-79
2022/10/16 04:54:41;;;;;;;5.95;2.03;;;;;;;11.29;99.54;101020.78;5041428;28;20052;-80
2022/10/16 04:57:06;;;;;;;4.75;2.13;;;;;;;11.22;99.93;101019.66;5014329;28;20017;-79
2022/10/16 04:59:32;;;;;;;5.22;1.95;;;;;;;11.21;100.00;101018.81;5036452;28;20528;-79
2022/10/16 05:01:57;;;;;;;4.75;2.15;;;;;;;11.16;99.64;101021.78;5034588;28;20552;-80
2022/10/16 05:04:23;;;;;;;3.95;2.00;;;;;;;11.15;99.41;101014.94;5043916;28;20391;-79
2022/10/16 05:06:48;;;;;;;4.20;2.10;;;;;;;11.21;99.71;101030.97;5043592;28;20033;-80
2022/10/16 05:09:13;;;;;;;6.40;2.33;;;;;;;11.21;100.00;101029.22;5056472;28;20024;-80
2022/10/16 05:11:39;;;;;;;4.85;2.20;;;;;;;11.24;100.00;101038.50;5046785;28;20075;-79
2022/10/16 05:14:04;;;;;;;4.20;1.80;;;;;;;11.17;100.00;101039.00;5035274;28;20032;-80
2022/10/16 05:16:30;;;;;;;4.22;1.85;;;;;;;11.16;100.00;101042.56;5049559;28;20449;-79
2022/10/16 05:18:56;;;;;;;3.67;1.75;;;;;;;11.21;100.00;101056.94;5049409;28;20452;-79
2022/10/16 05:21:22;;;;;;;4.22;2.22;;;;;;;11.14;100.00;101054.03;5047698;28;20020;-79
2022/10/16 05:23:47;;;;;;;5.75;1.88;;;;;;;11.14;100.00;101060.03;5051882;28;20044;-79
2022/10/16 05:26:12;;;;;;;5.53;2.10;;;;;;;11.15;99.97;101069.47;5029818;28;20025;-80
2022/10/16 05:28:38;;;;;;;5.03;2.33;;;;;;;11.12;100.00;101072.28;5053292;28;20040;-80
2022/10/16 05:31:07;;;;;;;4.20;1.90;;;;;;;11.12;100.00;101087.88;5054884;28;20111;-80
2022/10/16 05:33:33;;;;;;;4.57;1.95;;;;;;;11.04;100.00;101082.47;5047121;28;20043;-79
2022/10/16 05:36:03;;;;;;;3.53;1.75;;;;;;;11.02;100.00;101086.97;5048508;28;20020;-79
2022/10/16 05:38:28;;;;;;;4.45;2.05;;;;;;;11.01;100.00;101085.31;5055296;28;20040;-79
2022/10/16 05:40:54;;;;;;;3.55;1.60;;;;;;;11.05;100.00;101106.66;5051199;28;20377;-79
2022/10/16 05:43:20;;;;;;;4.50;1.90;;;;;;;10.96;100.00;101094.44;5045386;28;20414;-80
2022/10/16 05:45:57;;;;;;;3.28;1.70;;;;;;;11.01;100.00;101100.03;5054267;28;20100;-79
2022/10/16 05:48:23;;;;;;;4.75;1.90;;;;;;;11.00;100.00;101114.81;5046994;28;20035;-80
2022/10/16 05:50:48;;;;;;;4.97;1.95;;;;;;;10.99;100.00;101118.34;5024349;28;20396;-80
2022/10/16 05:53:14;;;;;;;2.65;1.73;;;;;;;10.96;100.00;101108.22;5052597;28;20037;-80
2022/10/16 05:55:39;;;;;;;4.00;2.00;;;;;;;10.95;100.00;101116.94;5046923;28;20446;-79
2022/10/16 05:58:04;;;;;;;2.95;1.85;;;;;;;10.97;100.00;101122.84;5047829;28;20423;-79
2022/10/16 06:00:30;;;;;;;2.63;1.70;;;;;;;10.95;100.00;101132.50;5026514;28;20043;-80
2022/10/16 06:02:55;;;;;;;7.60;2.20;;;;;;;10.97;100.00;101135.81;5052318;28;20029;-79
2022/10/16 06:05:20;;;;;;;5.47;2.38;;;;;;;10.90;100.00;101124.28;5027800;28;20493;-79
2022/10/16 06:07:46;;;;;;;4.55;2.00;;;;;;;10.96;100.00;101139.38;5053646;28;20032;-79
2022/10/16 06:10:11;;;;;;;5.82;2.40;;;;;;;10.93;100.00;101134.41;5047083;28;20025;-79
2022/10/16 06:12:36;;;;;;;6.32;2.17;;;;;;;10.99;100.00;101139.09;5022563;28;20462;-79
2022/10/16 06:15:02;;;;;;;5.60;2.30;;;;;;;10.94;100.00;101135.22;5048054;28;20453;-79
2022/10/16 06:17:27;;;;;;;3.88;2.00;;;;;;;10.93;100.00;101128.38;5051349;28;20025;-80
2022/10/16 06:19:52;;;;;;;5.40;2.22;;;;;;;10.98;100.00;101137.47;5061602;28;20032;-79
2022/10/16 06:22:18;;;;;;;6.97;2.17;;;;;;;10.94;100.00;101136.03;5051780;28;20033;-79
2022/10/16 06:24:43;;;;;;;6.35;2.03;;;;;;;10.93;100.00;101149.97;5029003;28;20025;-79
2022/10/16 06:27:08;;;;;;;3.90;1.98;;;;;;;10.94;100.00;101146.44;5029747;28;20025;-79
2022/10/16 06:29:34;;;;;;;4.18;2.15;;;;;;;10.97;100.00;101154.00;5049842;28;20082;-80
2022/10/16 06:31:59;;;;;;;3.47;2.00;;;;;;;10.98;100.00;101153.03;5049540;28;20029;-80
2022/10/16 06:34:24;;;;;;;5.78;2.00;;;;;;;10.98;100.00;101153.03;5055266;28;20075;-79
2022/10/16 06:36:50;;;;;;;6.80;2.17;;;;;;;11.07;100.00;101165.31;5053491;28;20424;-79
2022/10/16 06:39:15;;;;;;;4.95;2.00;;;;;;;11.06;100.00;101171.41;5052832;28;20040;-79
2022/10/16 06:41:40;;;;;;;4.00;2.03;;;;;;;11.11;100.00;101178.84;5033676;28;20487;-80
2022/10/16 06:44:07;;;;;;;4.63;2.20;;;;;;;11.11;100.00;101168.47;5051112;28;20454;-80
2022/10/16 06:46:33;;;;;;;4.40;2.33;;;;;;;11.12;100.00;101170.13;5033847;28;20381;-79
2022/10/16 06:48:58;;;;;;;3.50;2.13;;;;;;;11.15;100.00;101180.28;5046587;28;20501;-79
2022/10/16 06:51:25;;;;;;;5.47;2.50;;;;;;;11.21;100.00;101189.34;5047823;28;20043;-79
2022/10/16 06:53:53;;;;;;;7.93;2.38;;;;;;;11.22;100.00;101196.19;5040619;28;20039;-80
2022/10/16 06:56:23;;;;;;;6.22;2.60;;;;;;;11.26;100.00;101200.22;5046411;28;20056;-80
2022/10/16 06:58:50;;;;;;;4.13;2.53;;;;;;;11.27;100.00;101188.88;5046219;28;20047;-80
2022/10/16 07:01:16;;;;;;;4.65;2.20;;;;;;;11.27;100.00;101196.66;5037422;28;20021;-80
2022/10/16 07:03:43;;;;;;;3.95;1.90;;;;;;;11.27;100.00;101194.88;5054768;28;20095;-80
2022/10/16 07:06:11;;;;;;;5.32;2.50;;;;;;;11.39;100.00;101219.06;5052686;28;20040;-80
2022/10/16 07:08:39;;;;;;;6.65;2.80;;;;;;;11.38;100.00;101212.22;5038136;28;20357;-80
2022/10/16 07:11:06;;;;;;;5.43;2.15;;;;;;;11.43;100.00;101217.88;5053145;28;20096;-80
2022/10/16 07:13:36;;;;;;;4.63;2.00;;;;;;;11.44;100.00;101222.13;5048093;28;20044;-80
2022/10/16 07:16:13;;;;;;;4.45;2.03;;;;;;;11.43;100.00;101225.69;5030287;28;20063;-79
2022/10/16 07:18:40;;;;;;;4.40;2.13;;;;;;;11.49;100.00;101234.75;5050817;28;20052;-80
2022/10/16 07:21:06;;;;;;;7.30;2.20;;;;;;;11.50;100.00;101236.41;5052627;28;20093;-80
2022/10/16 07:23:31;;;;;;;4.85;2.08;;;;;;;11.49;100.00;101251.16;5062487;28;20454;-80
2022/10/16 07:25:57;;;;;;;4.85;2.47;;;;;;;11.49;100.00;101261.56;5035798;28;20536;-80
2022/10/16 07:28:22;;;;;;;5.38;2.40;;;;;;;11.46;100.00;101259.19;5045273;28;20516;-80
2022/10/16 07:30:48;;;;;;;3.50;2.47;;;;;;;11.54;100.00;101279.38;5048117;28;20548;-80
2022/10/16 07:33:13;;;;;;;5.45;2.17;;;;;;;11.54;100.00;101264.63;5055835;28;20040;-80
2022/10/16 07:35:54;;;;;;;4.22;2.00;;;;;;;11.58;100.00;101271.22;5031669;28;20068;-80
2022/10/16 07:38:20;;;;;;;4.10;2.28;;;;;;;11.63;100.00;101274.28;5031924;28;20053;-80
2022/10/16 07:40:46;;;;;;;5.15;2.58;;;;;;;11.72;100.00;101277.94;5049362;28;20047;-80
2022/10/16 07:43:11;;;;;;;5.22;2.88;;;;;;;11.70;100.00;101269.44;5035018;28;20029;-81
2022/10/16 07:45:38;;;;;;;4.32;2.60;;;;;;;11.79;100.00;101288.66;5027183;28;20025;-80
2022/10/16 07:48:03;;;;;;;4.50;2.35;;;;;;;11.68;100.00;101266.94;5049450;28;20040;-80
2022/10/16 07:50:29;;;;;;;7.15;2.63;;;;;;;11.86;100.00;101284.66;5029117;28;20037;-80
2022/10/16 07:52:54;;;;;;;4.03;2.05;;;;;;;11.94;100.00;101297.88;5022124;28;20033;-80
2022/10/16 07:55:19;;;;;;;5.90;2.70;;;;;;;11.92;100.00;101284.16;5044936;28;20032;-80
2022/10/16 07:57:45;;;;;;;6.45;2.40;;;;;;;11.99;100.00;101285.34;5039830;28;20496;-80
2022/10/16 08:00:13;;;;;;;5.60;2.90;;;;;;;12.01;100.00;101278.25;5043659;28;20362;-80
2022/10/16 08:02:39;;;;;;;5.45;2.50;;;;;;;12.08;100.00;101284.59;5054316;28;20112;-80
2022/10/16 08:05:05;;;;;;;5.88;2.60;;;;;;;12.17;100.00;101296.88;5044371;28;20587;-80
2022/10/16 08:07:31;;;;;;;4.25;2.70;;;;;;;12.26;100.00;101302.25;5050524;28;20155;-80
2022/10/16 08:09:58;;;;;;;6.00;2.45;;;;;;;12.27;100.00;101302.13;5036234;28;20158;-80
2022/10/16 08:12:23;;;;;;;4.57;2.38;;;;;;;12.33;100.00;101303.41;5040899;28;20029;-81
2022/10/16 08:14:48;;;;;;;4.90;2.90;;;;;;;12.42;100.00;101302.66;5042784;28;20028;-80
2022/10/16 08:17:15;;;;;;;5.22;2.70;;;;;;;12.51;100.00;101322.75;5034511;28;20423;-81
2022/10/16 08:19:44;;;;;;;8.25;2.88;;;;;;;12.52;100.00;101321.78;5045141;28;20055;-80
2022/10/16 08:22:09;;;;;;;5.93;2.67;;;;;;;12.59;100.00;101328.13;5050628;28;20025;-80
2022/10/16 08:24:36;;;;;;;5.38;2.45;;;;;;;12.59;100.00;101315.13;5049974;28;20031;-80
2022/10/16 08:27:02;;;;;;;7.13;2.67;;;;;;;12.71;100.00;101334.09;5025856;28;20452;-80
2022/10/16 08:29:27;;;;;;;5.78;2.42;;;;;;;12.75;100.00;101325.09;5029802;28;20041;-81
2022/10/16 08:31:53;;;;;;;5.30;2.42;;;;;;;12.86;99.74;101332.84;5043851;28;20032;-81
2022/10/16 08:34:18;;;;;;;5.13;2.25;;;;;;;12.90;99.31;101349.00;5039834;28;20024;-81
2022/10/16 08:36:44;;;;;;;4.95;2.97;;;;;;;12.89;99.40;101342.16;5044520;28;20024;-80
2022/10/16 08:39:09;;;;;;;4.90;2.28;;;;;;;12.95;99.09;101352.88;5044362;28;20112;-80
2022/10/16 08:41:56;;;;;;;6.85;2.78;;;;;;;13.04;98.36;101372.13;5027077;28;20123;-81
2022/10/16 08:44:36;;;;;;;4.82;2.17;;;;;;;13.11;98.25;101368.06;5046592;28;20044;-80
2022/10/16 08:47:34;;;;;;;5.85;2.42;;;;;;;13.17;98.02;101367.53;5026402;28;20033;-80
2022/10/16 08:50:02;;;;;;;;;;;;;;;13.25;98.94;101370.38;5037973;28;20025;-81
2022/10/16 08:52:35;;;;;;;5.55;2.33;;;;;;;13.32;97.10;101375.06;5042913;28;19912;-81
2022/10/16 08:55:01;;;;;;;5.07;2.60;;;;;;;13.29;96.61;101376.13;5041863;28;20025;-81
2022/10/16 08:57:27;;;;;;;5.40;2.47;;;;;;;13.40;96.62;101385.66;5046969;28;20407;-80
2022/10/16 08:59:59;;;;;;;7.13;2.65;;;;;;;13.48;96.47;101396.28;5052943;28;20538;-81
2022/10/16 09:02:37;;;;;;;5.95;2.20;;;;;;;13.53;96.67;101381.06;5047231;28;20029;-81
2022/10/16 09:05:21;;;;;;;6.85;2.80;;;;;;;13.57;95.71;101385.06;5044005;28;20112;-81
2022/10/16 09:08:10;;;;;;;3.97;2.15;;;;;;;13.69;96.32;101404.03;5034583;28;20056;-81
2022/10/16 09:10:41;;;;;;;7.88;2.75;;;;;;;13.74;95.77;101402.69;5029466;28;20082;-81
2022/10/16 09:13:17;;;;;;;5.43;2.33;;;;;;;13.76;94.83;101403.41;5040238;28;20032;-81
2022/10/16 09:16:07;;;;;;;7.90;2.83;;;;;;;13.82;95.39;101400.25;5042719;28;20029;-81
2022/10/16 09:19:05;;;;;;;7.80;2.83;;;;;;;13.86;95.03;101394.78;5042009;28;20125;-79
2022/10/16 09:21:31;;;;;;;;;;;;;;;13.98;96.02;101410.16;5044467;28;20044;-81
2022/10/16 09:24:11;;;;;;;7.00;2.97;;;;;;;14.04;94.20;101409.63;5047728;28;19928;-81
2022/10/16 09:26:37;;;;;;;6.90;2.95;;;;;;;14.16;94.41;101418.19;5042521;28;20064;-81
2022/10/16 09:29:03;;;;;;;7.30;2.30;;;;;;;14.13;93.93;101405.41;5045061;28;20079;-80
2022/10/16 09:31:28;;;;;;;7.32;2.67;;;;;;;14.19;93.21;101406.66;5049862;28;20056;-81
2022/10/16 09:33:59;;;;;;;9.95;2.95;;;;;;;14.31;92.74;101411.63;5046003;28;20067;-82
2022/10/16 09:36:28;;;;;;;7.90;3.15;;;;;;;14.40;92.02;101414.41;5042284;28;20067;-81
2022/10/16 09:39:08;;;;;;;9.55;3.30;;;;;;;14.42;92.08;101423.72;5050298;28;20051;-81
2022/10/16 09:41:39;;;;;;;8.88;2.47;;;;;;;14.49;91.93;101426.66;5050231;28;20021;-80
2022/10/16 09:44:16;;;;;;;10.88;2.88;;;;;;;14.53;91.10;101435.88;5018698;28;20049;-81
2022/10/16 09:46:41;;;;;;;8.35;2.70;;;;;;;14.57;90.02;101426.81;5041843;28;20048;-82
2022/10/16 09:49:23;;;;;;;9.10;2.63;;;;;;;14.69;90.70;101430.94;5024046;28;20029;-80
2022/10/16 09:51:49;;;;;;;10.35;2.60;;;;;;;14.71;89.98;101428.19;5045062;28;20021;-81
2022/10/16 09:54:20;;;;;;;10.52;2.80;;;;;;;14.78;89.91;101435.31;5048587;28;20670;-81
2022/10/16 09:56:49;;;;;;;7.32;2.40;;;;;;;14.78;88.87;101430.09;5044785;28;20091;-81
2022/10/16 09:59:15;;;;;;;8.77;2.80;;;;;;;14.93;89.26;101438.34;5046181;28;20024;-81
2022/10/16 10:01:45;;;;;;;10.63;2.38;;;;;;;14.89;86.72;101431.75;5045912;28;20031;-81
2022/10/16 10:04:11;;;;;;;10.23;3.05;;;;;;;14.97;87.86;101433.69;5052805;28;20322;-81
2022/10/16 10:06:43;;;;;;;11.73;3.03;;;;;;;15.00;88.01;101444.66;5052682;28;20031;-81
2022/10/16 10:09:23;;;;;;;10.88;2.67;;;;;;;15.09;87.65;101443.03;5060096;28;20046;-81
2022/10/16 10:11:56;;;;;;;10.32;2.72;;;;;;;15.07;86.80;101455.38;5048379;28;20361;-81
2022/10/16 10:14:23;;;;;;;10.70;2.45;;;;;;;15.24;87.22;101457.28;5046590;28;20032;-81
2022/10/16 10:16:50;;;;;;;13.52;2.60;;;;;;;15.21;86.71;101439.28;5029385;28;20469;-81
2022/10/16 10:19:18;;;;;;;12.32;3.28;;;;;;;15.26;83.59;101447.53;5030072;28;20040;-81
2022/10/16 10:21:44;;;;;;;;;;;;;;;15.35;87.32;101444.06;5050957;28;20074;-81
2022/10/16 10:24:13;;;;;;;11.07;2.80;;;;;;;15.39;85.04;101440.22;5046794;28;19917;-81
2022/10/16 10:26:45;;;;;;;12.32;3.03;;;;;;;15.44;83.16;101446.81;5027311;28;20032;-81
2022/10/16 10:29:23;;;;;;;11.27;2.75;;;;;;;15.55;83.32;101459.72;5046701;28;20106;-81
2022/10/16 10:31:57;;;;;;;10.40;2.58;;;;;;;15.51;80.88;101463.56;5025054;28;20031;-82
2022/10/16 10:34:40;;;;;;;12.13;2.67;;;;;;;15.67;83.39;101474.28;5045578;28;20385;-81
2022/10/16 10:37:30;;;;;;;10.10;2.33;;;;;;;15.62;83.85;101471.25;5028459;28;20045;-81
2022/10/16 10:40:22;;;;;;;12.60;2.75;;;;;;;15.59;81.92;101464.50;5058055;28;20093;-81
2022/10/16 10:42:57;;;;;;;10.88;2.50;;;;;;;15.53;80.50;101466.84;5046621;28;20389;-81
2022/10/16 10:45:28;;;;;;;9.80;2.53;;;;;;;15.64;79.52;101480.63;5022848;28;20052;-81
2022/10/16 10:48:05;;;;;;;12.95;2.90;;;;;;;15.74;81.14;101470.13;5046401;28;20384;-81
2022/10/16 10:50:33;;;;;;;12.77;2.50;;;;;;;15.76;79.01;101473.41;5045936;28;20029;-81
2022/10/16 10:53:09;;;;;;;10.18;2.17;;;;;;;15.78;76.85;101483.75;5043155;28;20036;-81
2022/10/16 10:55:38;;;;;;;9.07;2.38;;;;;;;15.75;77.12;101482.25;5028554;28;20031;-81
2022/10/16 10:58:12;;;;;;;11.13;2.30;;;;;;;15.71;77.28;101486.09;5047100;28;20037;-81
2022/10/16 11:01:05;;;;;;;7.70;2.17;;;;;;;15.74;78.84;101491.06;5049325;28;20036;-81
2022/10/16 11:03:42;;;;;;;10.65;2.28;;;;;;;15.83;78.47;101492.00;5053369;28;20032;-81
2022/10/16 11:06:26;;;;;;;10.88;2.35;;;;;;;15.94;78.36;101494.41;5033615;28;20029;-82
2022/10/16 11:09:07;;;;;;;9.07;2.22;;;;;;;16.00;77.89;101490.41;5053382;28;20064;-81
2022/10/16 11:11:45;;;;;;;9.35;2.25;;;;;;;16.05;76.47;101488.19;5027593;28;20544;-82
2022/10/16 11:14:23;;;;;;;9.40;2.20;;;;;;;16.18;76.72;101494.75;5040434;28;20033;-81
2022/10/16 11:17:08;;;;;;;9.85;2.75;;;;;;;16.24;76.52;101498.56;5045015;28;20031;-81
2022/10/16 11:19:42;;;;;;;8.88;2.17;;;;;;;16.29;75.97;101501.59;5050546;28;20025;-81
2022/10/16 11:22:22;;;;;;;12.07;2.83;;;;;;;16.21;76.20;101506.69;5050861;28;20400;-81
2022/10/16 11:25:04;;;;;;;9.05;2.10;;;;;;;16.40;76.25;101504.00;5047764;28;20028;-81
2022/10/16 11:27:40;;;;;;;11.25;2.50;;;;;;;16.38;75.18;101500.69;5039957;28;20029;-82
2022/10/16 11:30:20;;;;;;;10.00;2.50;;;;;;;16.48;76.20;101499.81;5039155;28;20055;-81
2022/10/16 11:33:07;;;;;;;9.38;2.38;;;;;;;16.51;73.94;101496.91;5041760;28;20028;-81